createdAt,value
2022-09-12T00:01:28.752Z,99236.59
2022-09-12T00:04:00.642Z,99247.56
2022-09-12T00:06:37.315Z,99252.41
2022-09-12T00:09:09.446Z,99254.78
2022-09-12T00:11:39.698Z,99257.94
2022-09-12T00:14:09.979Z,99258.38
2022-09-12T00:16:38.848Z,99256.19
2022-09-12T00:19:08.027Z,99249.59
2022-09-12T00:21:38.268Z,99255.50
2022-09-12T00:24:07.525Z,99239.03
2022-09-12T00:26:35.589Z,99262.81
2022-09-12T00:29:05.090Z,99262.81
2022-09-12T00:31:34.832Z,99271.75
2022-09-12T00:34:02.956Z,99267.66
2022-09-12T00:36:31.977Z,99282.78
2022-09-12T00:39:00.095Z,99276.03
2022-09-12T00:41:31.944Z,99287.31
2022-09-12T00:44:05.126Z,99284.16
2022-09-12T00:46:47.190Z,99281.41
2022-09-12T00:49:33.015Z,99296.41
2022-09-12T00:52:09.717Z,99294.22
2022-09-12T00:54:55.013Z,99302.63
2022-09-12T00:57:27.579Z,99303.84
2022-09-12T01:00:09.015Z,99286.00
2022-09-12T01:02:37.125Z,99302.78
2022-09-12T01:05:07.975Z,99302.38
2022-09-12T01:07:40.773Z,99290.69
2022-09-12T01:10:10.733Z,99293.16
2022-09-12T01:12:41.687Z,99304.72
2022-09-12T01:15:10.966Z,99300.47
2022-09-12T01:18:14.750Z,99304.03
2022-09-12T01:21:04.245Z,99312.28
2022-09-12T01:23:39.320Z,99313.53
2022-09-12T01:26:07.302Z,99310.38
2022-09-12T01:28:59.595Z,99315.00
2022-09-12T01:31:51.523Z,99311.59
2022-09-12T01:34:31.485Z,99311.84
2022-09-12T01:37:25.835Z,99312.13
2022-09-12T01:40:24.969Z,99317.63
2022-09-12T01:43:34.067Z,99319.84
2022-09-12T01:46:32.955Z,99331.09
2022-09-12T01:49:23.307Z,99332.88
2022-09-12T01:52:19.269Z,99330.28
2022-09-12T01:55:33.544Z,99331.66
2022-09-12T01:58:14.524Z,99332.34
2022-09-12T02:00:57.015Z,99327.66
2022-09-12T02:03:38.900Z,99332.47
2022-09-12T02:06:23.767Z,99329.84
2022-09-12T02:09:04.047Z,99346.75
2022-09-12T02:11:35.721Z,99341.66
2022-09-12T02:14:11.733Z,99333.28
2022-09-12T02:17:03.232Z,99346.19
2022-09-12T02:19:57.280Z,99342.06
2022-09-12T02:22:30.148Z,99352.91
2022-09-12T02:25:03.668Z,99360.03
2022-09-12T02:27:41.110Z,99356.44
2022-09-12T02:30:10.347Z,99364.94
2022-09-12T02:32:59.621Z,99373.72
2022-09-12T02:35:51.101Z,99380.16
2022-09-12T02:38:46.475Z,99378.66
2022-09-12T02:41:19.811Z,99383.88
2022-09-12T02:43:52.013Z,99386.34
2022-09-12T02:46:27.118Z,99380.00
2022-09-12T02:48:56.460Z,99388.25
2022-09-12T02:51:26.994Z,99398.97
2022-09-12T02:53:55.416Z,99397.31
2022-09-12T02:56:31.887Z,99402.00
2022-09-12T02:59:09.585Z,99407.22
2022-09-12T03:01:42.202Z,99407.06
2022-09-12T03:04:42.246Z,99415.59
2022-09-12T03:07:41.881Z,99422.19
2022-09-12T03:10:29.910Z,99426.72
2022-09-12T03:13:29.384Z,99417.50
2022-09-12T03:16:13.009Z,99440.41
2022-09-12T03:18:44.873Z,99444.81
2022-09-12T03:21:22.697Z,99443.03
2022-09-12T03:23:55.241Z,99451.69
2022-09-12T03:26:42.861Z,99463.75
2022-09-12T03:29:29.438Z,99459.38
2022-09-12T03:31:59.279Z,99462.13
2022-09-12T03:34:27.581Z,99471.97
2022-09-12T03:36:56.213Z,99478.41
2022-09-12T03:39:25.309Z,99480.19
2022-09-12T03:41:54.640Z,99474.97
2022-09-12T03:44:23.499Z,99487.75
2022-09-12T03:46:51.712Z,99488.72
2022-09-12T03:49:19.635Z,99491.44
2022-09-12T03:51:48.562Z,99486.50
2022-09-12T03:54:16.683Z,99501.63
2022-09-12T03:56:44.701Z,99501.63
2022-09-12T03:59:12.846Z,99510.28
2022-09-12T04:01:42.566Z,99511.75
2022-09-12T04:04:10.791Z,99519.00
2022-09-12T04:06:39.220Z,99511.75
2022-09-12T04:09:07.222Z,99517.53
2022-09-12T04:11:36.478Z,99534.44
2022-09-12T04:14:05.282Z,99528.09
2022-09-12T04:16:33.577Z,99540.06
2022-09-12T04:19:01.628Z,99544.69
2022-09-12T04:21:29.748Z,99554.81
2022-09-12T04:23:57.740Z,99548.09
2022-09-12T04:26:45.078Z,99558.66
2022-09-12T04:29:13.737Z,99553.72
2022-09-12T04:31:43.217Z,99569.13
2022-09-12T04:34:12.928Z,99573.50
2022-09-12T04:36:40.963Z,99582.53
2022-09-12T04:39:09.434Z,99604.69
2022-09-12T04:41:42.248Z,99600.56
2022-09-12T04:44:15.886Z,99602.47
2022-09-12T04:46:46.565Z,99609.31
2022-09-12T04:49:17.076Z,99613.00
2022-09-12T04:51:45.248Z,99616.56
2022-09-12T04:54:17.060Z,99628.53
2022-09-12T04:56:48.753Z,99630.41
2022-09-12T04:59:19.140Z,99629.72
2022-09-12T05:01:47.208Z,99626.41
2022-09-12T05:04:17.210Z,99632.44
2022-09-12T05:06:47.818Z,99640.38
2022-09-12T05:09:17.109Z,99649.00
2022-09-12T05:12:03.763Z,99658.22
2022-09-12T05:14:33.592Z,99661.41
2022-09-12T05:17:05.163Z,99660.84
2022-09-12T05:19:33.617Z,99654.91
2022-09-12T05:22:01.652Z,99657.53
2022-09-12T05:24:30.853Z,99685.69
2022-09-12T05:26:59.308Z,99676.84
2022-09-12T05:29:27.685Z,99681.19
2022-09-12T05:31:56.941Z,99678.94
2022-09-12T05:34:25.043Z,99700.88
2022-09-12T05:36:53.246Z,99689.38
2022-09-12T05:39:22.154Z,99702.75
2022-09-12T05:41:50.044Z,99698.84
2022-09-12T05:44:23.717Z,99701.22
2022-09-12T05:46:54.490Z,99728.69
2022-09-12T05:49:22.546Z,99723.03
2022-09-12T05:51:51.764Z,99719.00
2022-09-12T05:54:21.279Z,99750.50
2022-09-12T05:56:49.767Z,99755.59
2022-09-12T05:59:20.791Z,99754.88
2022-09-12T06:01:49.639Z,99763.91
2022-09-12T06:04:30.317Z,99758.44
2022-09-12T06:07:00.109Z,99767.94
2022-09-12T06:09:28.645Z,99781.09
2022-09-12T06:11:56.553Z,99786.19
2022-09-12T06:14:24.841Z,99799.94
2022-09-12T06:17:11.491Z,99799.81
2022-09-12T06:19:42.045Z,99803.38
2022-09-12T06:22:10.680Z,99802.78
2022-09-12T06:24:38.952Z,99816.06
2022-09-12T06:27:07.047Z,99819.59
2022-09-12T06:29:35.132Z,99833.56
2022-09-12T06:32:03.437Z,99836.44
2022-09-12T06:34:33.115Z,99837.50
2022-09-12T06:37:00.861Z,99839.53
2022-09-12T06:39:29.082Z,99830.75
2022-09-12T06:41:57.763Z,99854.78
2022-09-12T06:44:25.718Z,99862.97
2022-09-12T06:46:54.847Z,99859.06
2022-09-12T06:49:22.998Z,99864.25
2022-09-12T06:51:50.994Z,99873.47
2022-09-12T06:54:19.987Z,99878.09
2022-09-12T06:56:49.701Z,99874.91
2022-09-12T06:59:17.714Z,99895.88
2022-09-12T07:01:45.752Z,99901.19
2022-09-12T07:04:15.960Z,99898.59
2022-09-12T07:06:45.566Z,99903.44
2022-09-12T07:09:16.952Z,99910.91
2022-09-12T07:11:46.240Z,99930.13
2022-09-12T07:14:15.957Z,99929.66
2022-09-12T07:16:44.721Z,99934.16
2022-09-12T07:19:31.011Z,99931.66
2022-09-12T07:22:00.220Z,99941.72
2022-09-12T07:24:28.158Z,99945.13
2022-09-12T07:26:58.683Z,99954.72
2022-09-12T07:29:36.590Z,99957.56
2022-09-12T07:32:06.568Z,99964.31
2022-09-12T07:34:35.660Z,99976.63
2022-09-12T07:37:03.706Z,99975.69
2022-09-12T07:39:31.728Z,99981.72
2022-09-12T07:42:02.053Z,99997.47
2022-09-12T07:44:30.155Z,99943.63
2022-09-12T07:46:58.187Z,99992.53
2022-09-12T07:49:26.386Z,99988.84
2022-09-12T07:51:54.503Z,100008.91
2022-09-12T07:54:22.706Z,100016.38
2022-09-12T07:56:51.587Z,99991.00
2022-09-12T07:59:35.667Z,100017.97
2022-09-12T08:02:15.971Z,100028.81
2022-09-12T08:04:45.520Z,100035.34
2022-09-12T08:07:33.124Z,100040.22
2022-09-12T08:10:01.316Z,100021.81
2022-09-12T08:12:30.441Z,100044.00
2022-09-12T08:15:18.106Z,100046.94
2022-09-12T08:17:46.140Z,100051.94
2022-09-12T08:20:14.485Z,100060.47
2022-09-12T08:22:45.746Z,100061.06
2022-09-12T08:25:13.874Z,100071.69
2022-09-12T08:27:43.693Z,100081.19
2022-09-12T08:30:14.114Z,100089.75
2022-09-12T08:32:42.109Z,100082.94
2022-09-12T08:35:10.211Z,100091.63
2022-09-12T08:37:39.968Z,100100.59
2022-09-12T08:40:09.795Z,100108.31
2022-09-12T08:43:03.967Z,100115.19
2022-09-12T08:45:39.596Z,100125.31
2022-09-12T08:48:15.141Z,100122.81
2022-09-12T08:50:49.831Z,100126.06
2022-09-12T08:53:26.183Z,100137.25
2022-09-12T08:55:59.817Z,100133.19
2022-09-12T08:58:30.809Z,100135.91
2022-09-12T09:01:36.326Z,100144.13
2022-09-12T09:04:34.111Z,100150.28
2022-09-12T09:07:08.096Z,100163.53
2022-09-12T09:09:50.048Z,100159.16
2022-09-12T09:12:50.953Z,100166.66
2022-09-12T09:15:26.529Z,100179.38
2022-09-12T09:18:21.884Z,100186.03
2022-09-12T09:20:52.587Z,100196.00
2022-09-12T09:23:49.078Z,100187.16
2022-09-12T09:26:38.075Z,100195.81
2022-09-12T09:29:21.710Z,100196.13
2022-09-12T09:31:54.294Z,100217.91
2022-09-12T09:34:30.551Z,100221.00
2022-09-12T09:37:27.595Z,100220.44
2022-09-12T09:43:09.559Z,100227.72
2022-09-12T09:45:38.411Z,100228.63
2022-09-12T09:48:18.260Z,100253.44
2022-09-12T09:50:47.114Z,100247.97
2022-09-12T09:53:31.048Z,100263.75
2022-09-12T09:56:03.788Z,100275.25
2022-09-12T09:58:34.081Z,100278.31
2022-09-12T10:01:07.423Z,100281.41
2022-09-12T10:03:39.953Z,100295.91
2022-09-12T10:06:10.708Z,100300.91
2022-09-12T10:08:39.126Z,100311.13
2022-09-12T10:11:23.626Z,100315.28
2022-09-12T10:13:58.202Z,100320.84
2022-09-12T10:16:48.680Z,100326.16
2022-09-12T10:19:34.993Z,100329.84
2022-09-12T10:22:06.577Z,100344.31
2022-09-12T10:24:42.814Z,100341.09
2022-09-12T10:27:13.708Z,100348.44
2022-09-12T10:29:52.818Z,100341.34
2022-09-12T10:32:45.172Z,100362.03
2022-09-12T10:35:21.498Z,100369.03
2022-09-12T10:37:57.754Z,100376.84
2022-09-12T10:40:33.411Z,100376.22
2022-09-12T10:43:03.462Z,100377.25
2022-09-12T10:45:36.151Z,100365.91
2022-09-12T10:48:33.714Z,100380.63
2022-09-12T10:51:02.567Z,100396.91
2022-09-12T10:53:43.616Z,100403.06
2022-09-12T10:56:19.968Z,100388.38
2022-09-12T10:58:56.102Z,100404.81
2022-09-12T11:01:33.361Z,100418.50
2022-09-12T11:05:00.444Z,100411.81
2022-09-12T11:07:51.819Z,100419.31
2022-09-12T11:10:41.473Z,100432.25
2022-09-12T11:13:48.433Z,100433.50
2022-09-12T11:16:29.398Z,100440.19
2022-09-12T11:19:37.940Z,100430.88
2022-09-12T11:22:50.524Z,100457.31
2022-09-12T11:25:42.516Z,100473.69
2022-09-12T11:28:36.122Z,100483.41
2022-09-12T11:31:25.298Z,100492.06
2022-09-12T11:33:56.780Z,100495.31
2022-09-12T11:36:43.299Z,100501.56
2022-09-12T11:39:23.829Z,100499.16
2022-09-12T11:41:58.887Z,100505.44
2022-09-12T11:44:43.025Z,100519.53
2022-09-12T11:47:15.293Z,100524.94
2022-09-12T11:49:50.247Z,100527.66
2022-09-12T11:52:23.485Z,100522.84
2022-09-12T11:55:09.679Z,100532.66
2022-09-12T11:57:45.080Z,100539.44
2022-09-12T12:00:13.485Z,100539.66
2022-09-12T12:03:14.884Z,100544.13
2022-09-12T12:05:54.901Z,100535.38
2022-09-12T12:08:28.630Z,100555.09
2022-09-12T12:11:02.714Z,100563.22
2022-09-12T12:13:30.734Z,100574.59
2022-09-12T12:16:07.791Z,100574.78
2022-09-12T12:18:39.764Z,100583.63
2022-09-12T12:21:20.864Z,100583.84
2022-09-12T12:24:09.743Z,100583.09
2022-09-12T12:26:45.071Z,100597.19
2022-09-12T12:29:38.249Z,100594.13
2022-09-12T12:32:12.184Z,100602.22
2022-09-12T12:34:43.048Z,100610.16
2022-09-12T12:37:20.201Z,100613.16
2022-09-12T12:39:51.878Z,100612.53
2022-09-12T12:42:41.099Z,100629.28
2022-09-12T12:45:21.205Z,100625.09
2022-09-12T12:47:54.412Z,100639.38
2022-09-12T12:50:31.247Z,100642.28
2022-09-12T12:52:59.324Z,100650.19
2022-09-12T12:55:59.608Z,100662.66
2022-09-12T12:58:42.785Z,100663.91
2022-09-12T13:01:12.990Z,100685.94
2022-09-12T13:03:48.158Z,100675.63
2022-09-12T13:06:38.966Z,100689.09
2022-09-12T13:09:35.130Z,100701.38
2022-09-12T13:12:08.787Z,100670.78
2022-09-12T13:14:51.152Z,100715.06
2022-09-12T13:17:36.161Z,100719.63
2022-09-12T13:20:31.245Z,100731.25
2022-09-12T13:23:00.927Z,100682.00
2022-09-12T13:25:33.538Z,100731.31
2022-09-12T13:28:13.137Z,100741.56
2022-09-12T13:30:46.442Z,100742.19
2022-09-12T13:33:23.012Z,100745.22
2022-09-12T13:36:31.289Z,100763.53
2022-09-12T13:39:11.420Z,100768.06
2022-09-12T13:42:16.633Z,100771.94
2022-09-12T13:45:11.381Z,100785.22
2022-09-12T13:47:48.168Z,100786.41
2022-09-12T13:50:21.096Z,100799.78
2022-09-12T13:53:03.210Z,100791.38
2022-09-12T13:55:54.478Z,100810.88
2022-09-12T13:58:26.318Z,100820.75
2022-09-12T14:01:08.418Z,100823.69
2022-09-12T14:04:15.790Z,100830.72
2022-09-12T14:06:50.629Z,100842.06
2022-09-12T14:09:32.093Z,100837.94
2022-09-12T14:12:01.755Z,100845.06
2022-09-12T14:14:37.608Z,100850.44
2022-09-12T14:17:23.751Z,100857.56
2022-09-12T14:19:53.383Z,100862.09
2022-09-12T14:22:21.550Z,100869.13
2022-09-12T14:24:52.479Z,100871.66
2022-09-12T14:27:46.403Z,100881.97
2022-09-12T14:30:29.179Z,100891.38
2022-09-12T14:33:19.571Z,100893.13
2022-09-12T14:36:07.873Z,100891.44
2022-09-12T14:38:41.524Z,100903.34
2022-09-12T14:41:13.635Z,100906.78
2022-09-12T14:43:48.319Z,100909.31
2022-09-12T14:46:36.303Z,100918.03
2022-09-12T14:49:17.849Z,100913.16
2022-09-12T14:51:51.957Z,100924.00
2022-09-12T14:54:29.143Z,100929.19
2022-09-12T14:57:00.543Z,100929.19
2022-09-12T14:59:34.240Z,100938.84
2022-09-12T15:02:21.930Z,100941.50
2022-09-12T15:04:53.708Z,100939.59
2022-09-12T15:07:36.582Z,100943.97
2022-09-12T15:10:07.353Z,100948.75
2022-09-12T15:12:35.318Z,100949.59
2022-09-12T15:15:21.223Z,100955.88
2022-09-12T15:17:49.286Z,100966.00
2022-09-12T15:20:17.376Z,100965.31
2022-09-12T15:22:50.994Z,100948.19
2022-09-12T15:25:19.269Z,100963.25
2022-09-12T15:27:48.023Z,100974.47
2022-09-12T15:30:16.583Z,100973.72
2022-09-12T15:32:45.855Z,100978.91
2022-09-12T15:35:18.593Z,100979.75
2022-09-12T15:37:46.815Z,100984.19
2022-09-12T15:40:15.099Z,100986.97
2022-09-12T15:42:43.540Z,101000.56
2022-09-12T15:45:20.753Z,100995.88
2022-09-12T15:47:48.816Z,101001.84
2022-09-12T15:50:17.103Z,101001.00
2022-09-12T15:52:46.994Z,101003.13
2022-09-12T15:55:21.400Z,101008.41
2022-09-12T15:57:51.002Z,101024.41
2022-09-12T16:00:19.642Z,101015.50
2022-09-12T16:02:49.815Z,101024.06
2022-09-12T16:05:27.153Z,101014.75
2022-09-12T16:07:56.257Z,101028.19
2022-09-12T16:10:31.972Z,101036.84
2022-09-12T16:13:00.622Z,101025.00
2022-09-12T16:15:31.153Z,101044.31
2022-09-12T16:18:00.827Z,101047.59
2022-09-12T16:20:28.896Z,101048.34
2022-09-12T16:22:56.863Z,101049.97
2022-09-12T16:25:28.042Z,101056.75
2022-09-12T16:27:56.087Z,101069.53
2022-09-12T16:30:24.100Z,101062.47
2022-09-12T16:32:53.521Z,101060.63
2022-09-12T16:35:21.658Z,101076.16
2022-09-12T16:37:49.697Z,101078.09
2022-09-12T16:40:20.915Z,101076.66
2022-09-12T16:42:48.927Z,101078.19
2022-09-12T16:45:17.085Z,101069.09
2022-09-12T16:47:46.059Z,101082.28
2022-09-12T16:50:14.907Z,101095.22
2022-09-12T16:52:42.865Z,101091.53
2022-09-12T16:55:11.013Z,101097.75
2022-09-12T16:57:39.403Z,101097.16
2022-09-12T17:00:08.383Z,101103.88
2022-09-12T17:02:38.235Z,101102.88
2022-09-12T17:05:06.073Z,101111.44
2022-09-12T17:07:35.491Z,101108.84
2022-09-12T17:10:03.627Z,101120.09
2022-09-12T17:12:31.734Z,101128.75
2022-09-12T17:15:00.681Z,101128.66
2022-09-12T17:17:29.149Z,101103.53
2022-09-12T17:19:57.159Z,101133.88
2022-09-12T17:22:25.222Z,101123.78
2022-09-12T17:24:55.274Z,101137.47
2022-09-12T17:27:23.252Z,101148.03
2022-09-12T17:29:51.815Z,101118.59
2022-09-12T17:32:20.132Z,101143.84
2022-09-12T17:34:48.183Z,101155.53
2022-09-12T17:37:16.111Z,101142.69
2022-09-12T17:39:44.429Z,101158.13
2022-09-12T17:42:12.610Z,101158.81
2022-09-12T17:44:40.795Z,101153.00
2022-09-12T17:47:08.940Z,101159.66
2022-09-12T17:49:37.403Z,101171.47
2022-09-12T17:52:05.645Z,101176.66
2022-09-12T17:54:33.793Z,101185.16
2022-09-12T17:57:01.802Z,101186.94
2022-09-12T17:59:29.824Z,101184.31
2022-09-12T18:02:17.223Z,101191.22
2022-09-12T18:04:47.147Z,101199.78
2022-09-12T18:07:21.738Z,101195.41
2022-09-12T18:09:51.908Z,101200.78
2022-09-12T18:12:20.907Z,101194.22
2022-09-12T18:15:33.341Z,101212.34
2022-09-12T18:18:02.686Z,101212.34
2022-09-12T18:20:31.044Z,101223.47
2022-09-12T18:22:59.460Z,101220.78
2022-09-12T18:25:27.447Z,101230.34
2022-09-12T18:27:55.386Z,101227.75
2022-09-12T18:30:24.273Z,101233.72
2022-09-12T18:32:52.325Z,101229.34
2022-09-12T18:35:20.382Z,101241.53
2022-09-12T18:37:48.755Z,101237.25
2022-09-12T18:40:16.809Z,101247.72
2022-09-12T18:42:44.847Z,101232.94
2022-09-12T18:45:12.983Z,101247.66
2022-09-12T18:47:42.517Z,101245.97
2022-09-12T18:50:10.911Z,101259.66
2022-09-12T18:52:39.832Z,101258.75
2022-09-12T18:55:07.990Z,101251.84
2022-09-12T18:57:35.933Z,101251.41
2022-09-12T19:00:11.807Z,101262.59
2022-09-12T19:02:40.293Z,101252.47
2022-09-12T19:05:08.658Z,101260.75
2022-09-12T19:07:36.913Z,101262.44
2022-09-12T19:10:05.563Z,101271.00
2022-09-12T19:12:33.626Z,101273.53
2022-09-12T19:15:05.723Z,101259.13
2022-09-12T19:17:33.743Z,101266.47
2022-09-12T19:20:03.024Z,101273.38
2022-09-12T19:22:31.915Z,101274.22
2022-09-12T19:24:59.955Z,101283.78
2022-09-12T19:27:27.942Z,101276.81
2022-09-12T19:29:58.293Z,101287.22
2022-09-12T19:32:26.325Z,101284.78
2022-09-12T19:34:54.243Z,101290.91
2022-09-12T19:37:22.299Z,101292.84
2022-09-12T19:39:50.476Z,101281.56
2022-09-12T19:42:18.400Z,101287.63
2022-09-12T19:44:46.572Z,101294.50
2022-09-12T19:47:14.506Z,101303.94
2022-09-12T19:49:42.491Z,101296.03
2022-09-12T19:52:12.556Z,101298.66
2022-09-12T19:54:42.313Z,101299.50
2022-09-12T19:57:10.267Z,101289.31
2022-09-12T19:59:40.047Z,101301.03
2022-09-12T20:02:08.505Z,101296.66
2022-09-12T20:04:37.606Z,101304.47
2022-09-12T20:07:05.709Z,101295.03
2022-09-12T20:09:33.734Z,101313.28
2022-09-12T20:12:01.808Z,101296.13
2022-09-12T20:14:29.881Z,101316.25
2022-09-12T20:16:57.901Z,101315.44
2022-09-12T20:19:25.905Z,101306.69
2022-09-12T20:21:54.968Z,101294.41
2022-09-12T20:24:23.113Z,101316.03
2022-09-12T20:26:51.070Z,101313.50
2022-09-12T20:29:19.570Z,101317.34
2022-09-12T20:31:47.622Z,101335.41
2022-09-12T20:34:19.946Z,101331.97
2022-09-12T20:36:49.235Z,101336.41
2022-09-12T20:39:23.199Z,101329.50
2022-09-12T20:41:51.644Z,101322.81
2022-09-12T20:44:19.887Z,101337.09
2022-09-12T20:46:48.049Z,101331.81
2022-09-12T20:49:16.416Z,101315.44
2022-09-12T20:51:44.412Z,101309.38
2022-09-12T20:54:12.530Z,101342.16
2022-09-12T20:56:40.632Z,101303.13
2022-09-12T20:59:12.070Z,101349.03
2022-09-12T21:01:40.749Z,101341.31
2022-09-12T21:04:11.841Z,101355.25
2022-09-12T21:06:43.088Z,101357.84
2022-09-12T21:09:11.163Z,101353.41
2022-09-12T21:11:39.103Z,101348.50
2022-09-12T21:14:07.122Z,101361.22
2022-09-12T21:16:40.986Z,101362.13
2022-09-12T21:19:09.047Z,101354.25
2022-09-12T21:21:37.459Z,101346.97
2022-09-12T21:24:09.251Z,101359.53
2022-09-12T21:26:36.975Z,101362.13
2022-09-12T21:29:04.868Z,101376.38
2022-09-12T21:31:32.920Z,101365.53
2022-09-12T21:34:00.962Z,101367.16
2022-09-12T21:36:28.947Z,101375.72
2022-09-12T21:39:00.956Z,101363.69
2022-09-12T21:41:29.455Z,101380.16
2022-09-12T21:43:57.540Z,101371.72
2022-09-12T21:46:25.721Z,101385.19
2022-09-12T21:48:53.721Z,101391.16
2022-09-12T21:51:21.695Z,101394.75
2022-09-12T21:53:51.177Z,101397.34
2022-09-12T21:59:06.768Z,101396.34
2022-09-12T22:01:34.827Z,101400.72
2022-09-12T22:04:02.845Z,101385.28
2022-09-12T22:06:30.939Z,101398.88
2022-09-12T22:08:58.979Z,101412.75
2022-09-12T22:11:27.642Z,101411.91
2022-09-12T22:13:55.938Z,101420.63
2022-09-12T22:16:42.295Z,101417.25
2022-09-12T22:19:11.287Z,101419.03
2022-09-12T22:21:59.250Z,101416.41
2022-09-12T22:24:32.956Z,101419.72
2022-09-12T22:27:05.118Z,101413.81
2022-09-12T22:29:33.637Z,101437.78
2022-09-12T22:32:06.225Z,101435.13
2022-09-12T22:34:34.161Z,101429.06
2022-09-12T22:37:02.089Z,101399.59
2022-09-12T22:39:33.205Z,101430.69
2022-09-12T22:42:02.302Z,101447.16
2022-09-12T22:44:31.007Z,101444.53
2022-09-12T22:46:59.307Z,101441.09
2022-09-12T22:49:27.316Z,101437.09
2022-09-12T22:51:55.223Z,101448.34
2022-09-12T22:54:43.231Z,101452.03
2022-09-12T22:57:11.211Z,101453.81
2022-09-12T22:59:39.241Z,101447.16
2022-09-12T23:02:07.619Z,101452.13
2022-09-12T23:04:38.438Z,101467.56
2022-09-12T23:07:06.473Z,101466.59
2022-09-12T23:09:35.540Z,101471.66
2022-09-12T23:12:05.217Z,101475.94
2022-09-12T23:14:33.226Z,101480.28
2022-09-12T23:17:03.064Z,101482.81
2022-09-12T23:19:30.684Z,101487.19
2022-09-12T23:21:58.700Z,101490.78
2022-09-12T23:24:28.285Z,101489.16
2022-09-12T23:26:57.537Z,101497.81
2022-09-12T23:29:26.597Z,101487.47
2022-09-12T23:31:54.812Z,101492.75
2022-09-12T23:34:22.881Z,101493.47
2022-09-12T23:36:50.772Z,101491.13
2022-09-12T23:39:19.017Z,101500.66
2022-09-12T23:41:47.187Z,101515.06
2022-09-12T23:44:15.117Z,101512.47
2022-09-12T23:46:43.988Z,101521.31
2022-09-12T23:49:11.921Z,101490.28
2022-09-12T23:51:40.264Z,101509.63
2022-09-12T23:54:08.537Z,101529.28
2022-09-12T23:56:36.457Z,101532.72
2022-09-12T23:59:05.180Z,101508.44
